createdAt,value
2018-12-30T00:00:20.960Z,87.94
2018-12-30T00:02:51.835Z,87.99
2018-12-30T00:05:22.808Z,88.14
2018-12-30T00:07:53.418Z,88.24
2018-12-30T00:10:23.915Z,88.24
2018-12-30T00:12:54.498Z,88.14
2018-12-30T00:15:25.410Z,88.02
2018-12-30T00:17:56.030Z,88.04
2018-12-30T00:20:26.630Z,88.02
2018-12-30T00:22:57.100Z,88.10
2018-12-30T00:25:27.573Z,88.21
2018-12-30T00:27:58.082Z,88.10
2018-12-30T00:30:28.770Z,88.19
2018-12-30T00:32:59.492Z,88.02
2018-12-30T00:35:30.018Z,87.85
2018-12-30T00:38:00.688Z,87.63
2018-12-30T00:40:31.113Z,87.35
2018-12-30T00:43:01.657Z,87.25
2018-12-30T00:45:32.346Z,87.15
2018-12-30T00:48:02.870Z,87.10
2018-12-30T00:50:33.475Z,87.00
2018-12-30T00:53:04.164Z,86.79
2018-12-30T00:55:34.845Z,86.21
2018-12-30T00:58:05.449Z,85.86
2018-12-30T01:00:36.045Z,85.64
2018-12-30T01:03:06.756Z,85.29
2018-12-30T01:05:37.356Z,85.38
2018-12-30T01:08:07.976Z,85.20
2018-12-30T01:10:38.940Z,85.13
2018-12-30T01:13:09.587Z,85.00
2018-12-30T01:15:40.787Z,84.48
2018-12-30T01:18:11.461Z,84.74
2018-12-30T01:20:42.044Z,84.62
2018-12-30T01:23:12.675Z,84.61
2018-12-30T01:25:43.276Z,84.86
2018-12-30T01:28:14.211Z,84.65
2018-12-30T01:30:44.848Z,84.53
2018-12-30T01:33:15.390Z,84.93
2018-12-30T01:35:46.035Z,84.74
2018-12-30T01:38:16.476Z,84.14
2018-12-30T01:40:47.118Z,84.15
2018-12-30T01:43:18.126Z,84.26
2018-12-30T01:45:48.629Z,84.38
2018-12-30T01:48:19.233Z,84.71
2018-12-30T01:50:50.378Z,84.52
2018-12-30T01:53:21.044Z,84.67
2018-12-30T01:55:51.640Z,84.75
2018-12-30T01:58:22.273Z,84.85
2018-12-30T02:00:52.785Z,84.72
2018-12-30T02:03:23.654Z,84.94
2018-12-30T02:05:54.364Z,84.85
2018-12-30T02:08:25.150Z,85.02
2018-12-30T02:10:55.739Z,85.58
2018-12-30T02:13:26.194Z,85.57
2018-12-30T02:15:56.877Z,85.73
2018-12-30T02:18:27.450Z,85.96
2018-12-30T02:20:58.249Z,85.71
2018-12-30T02:23:28.644Z,85.60
2018-12-30T02:25:59.323Z,86.13
2018-12-30T02:28:29.750Z,86.33
2018-12-30T02:31:00.395Z,86.32
2018-12-30T02:33:30.906Z,86.63
2018-12-30T02:36:01.533Z,86.71
2018-12-30T02:38:32.098Z,86.94
2018-12-30T02:41:02.717Z,87.05
2018-12-30T02:43:33.640Z,87.36
2018-12-30T02:46:04.214Z,87.38
2018-12-30T02:48:34.790Z,87.63
2018-12-30T02:51:05.310Z,87.66
2018-12-30T02:53:35.765Z,87.80
2018-12-30T02:56:06.223Z,87.97
2018-12-30T02:58:36.991Z,87.89
2018-12-30T03:01:07.579Z,87.90
2018-12-30T03:03:38.088Z,87.92
2018-12-30T03:06:08.653Z,87.75
2018-12-30T03:08:39.141Z,87.75
2018-12-30T03:11:09.732Z,87.80
2018-12-30T03:13:40.142Z,87.70
2018-12-30T03:16:10.647Z,87.76
2018-12-30T03:18:41.224Z,88.02
2018-12-30T03:21:11.656Z,88.13
2018-12-30T03:23:42.187Z,88.28
2018-12-30T03:26:12.736Z,88.56
2018-12-30T03:28:43.252Z,88.63
2018-12-30T03:31:13.841Z,88.61
2018-12-30T03:33:44.335Z,88.56
2018-12-30T03:36:14.945Z,88.74
2018-12-30T03:38:45.444Z,88.84
2018-12-30T03:41:15.901Z,88.99
2018-12-30T03:43:46.514Z,89.04
2018-12-30T03:46:17.108Z,89.08
2018-12-30T03:48:47.595Z,89.12
2018-12-30T03:51:18.241Z,89.45
2018-12-30T03:53:49.069Z,89.72
2018-12-30T03:56:19.505Z,90.08
2018-12-30T03:58:49.926Z,90.35
2018-12-30T04:01:20.464Z,90.57
2018-12-30T04:03:51.067Z,90.71
2018-12-30T04:06:21.635Z,90.85
2018-12-30T04:08:51.955Z,91.00
2018-12-30T04:11:22.385Z,91.02
2018-12-30T04:13:52.960Z,91.15
2018-12-30T04:16:23.581Z,91.26
2018-12-30T04:18:53.992Z,91.33
2018-12-30T04:21:24.687Z,91.33
2018-12-30T04:23:55.078Z,91.48
2018-12-30T04:26:25.487Z,91.54
2018-12-30T04:28:56.012Z,91.55
2018-12-30T04:31:26.504Z,91.52
2018-12-30T04:33:56.922Z,91.62
2018-12-30T04:36:27.371Z,91.62
2018-12-30T04:38:57.768Z,91.63
2018-12-30T04:41:28.191Z,91.61
2018-12-30T04:43:58.647Z,91.58
2018-12-30T04:46:29.173Z,91.45
2018-12-30T04:48:59.602Z,91.38
2018-12-30T04:51:30.098Z,91.19
2018-12-30T04:54:00.544Z,91.08
2018-12-30T04:56:30.964Z,90.93
2018-12-30T04:59:01.382Z,90.78
2018-12-30T05:01:32.969Z,90.73
2018-12-30T05:04:03.522Z,90.51
2018-12-30T05:06:33.941Z,90.34
2018-12-30T05:09:06.058Z,90.09
2018-12-30T05:11:36.637Z,90.07
2018-12-30T05:14:07.266Z,90.13
2018-12-30T05:16:37.806Z,90.14
2018-12-30T05:19:08.330Z,90.04
2018-12-30T05:21:38.999Z,89.90
2018-12-30T05:24:09.445Z,89.78
2018-12-30T05:26:39.929Z,89.66
2018-12-30T05:29:10.429Z,89.60
2018-12-30T05:31:40.781Z,89.53
2018-12-30T05:34:11.325Z,89.46
2018-12-30T05:36:41.741Z,89.57
2018-12-30T05:39:12.197Z,89.71
2018-12-30T05:41:42.648Z,89.75
2018-12-30T05:44:13.188Z,89.84
2018-12-30T05:46:43.986Z,89.82
2018-12-30T05:49:14.588Z,89.66
2018-12-30T05:51:45.079Z,89.62
2018-12-30T05:54:15.521Z,89.64
2018-12-30T05:56:45.969Z,89.62
2018-12-30T05:59:16.438Z,89.67
2018-12-30T06:01:46.825Z,89.76
2018-12-30T06:04:17.324Z,89.86
2018-12-30T06:06:48.031Z,89.81
2018-12-30T06:09:18.565Z,89.82
2018-12-30T06:11:48.944Z,89.92
2018-12-30T06:14:19.487Z,89.91
2018-12-30T06:16:50.078Z,89.92
2018-12-30T06:19:20.594Z,90.07
2018-12-30T06:21:51.089Z,90.10
2018-12-30T06:24:21.540Z,90.11
2018-12-30T06:26:52.078Z,90.19
2018-12-30T06:29:22.645Z,90.22
2018-12-30T06:31:53.115Z,90.28
2018-12-30T06:34:23.629Z,90.38
2018-12-30T06:36:54.385Z,90.52
2018-12-30T06:39:24.755Z,90.63
2018-12-30T06:41:55.545Z,90.81
2018-12-30T06:44:26.064Z,90.97
2018-12-30T06:46:56.511Z,91.11
2018-12-30T06:49:27.198Z,91.40
2018-12-30T06:51:58.038Z,91.51
2018-12-30T06:54:28.594Z,91.65
2018-12-30T06:56:59.078Z,91.87
2018-12-30T06:59:29.632Z,91.94
2018-12-30T07:02:00.017Z,91.99
2018-12-30T07:04:30.495Z,92.01
2018-12-30T07:07:01.172Z,92.06
2018-12-30T07:09:32.058Z,92.10
2018-12-30T07:12:07.305Z,92.11
2018-12-30T07:14:38.074Z,92.11
2018-12-30T07:17:08.625Z,92.08
2018-12-30T07:19:39.268Z,92.08
2018-12-30T07:22:10.125Z,92.05
2018-12-30T07:24:40.708Z,92.05
2018-12-30T07:27:11.384Z,91.97
2018-12-30T07:29:41.970Z,91.95
2018-12-30T07:32:12.870Z,91.93
2018-12-30T07:34:43.217Z,91.90
2018-12-30T07:37:13.843Z,91.88
2018-12-30T07:39:44.376Z,91.86
2018-12-30T07:42:15.194Z,91.85
2018-12-30T07:44:45.920Z,91.86
2018-12-30T07:47:16.807Z,91.84
2018-12-30T07:49:47.538Z,91.82
2018-12-30T07:52:18.358Z,91.82
2018-12-30T07:54:49.136Z,91.79
2018-12-30T07:57:19.617Z,91.76
2018-12-30T07:59:50.608Z,91.79
2018-12-30T08:02:21.088Z,91.76
2018-12-30T08:04:52.565Z,91.76
2018-12-30T08:07:23.259Z,91.78
2018-12-30T08:09:54.290Z,91.84
2018-12-30T08:12:25.045Z,91.88
2018-12-30T08:14:55.884Z,91.93
2018-12-30T08:17:26.835Z,91.92
2018-12-30T08:19:58.255Z,91.98
2018-12-30T08:22:29.021Z,92.01
2018-12-30T08:24:59.551Z,92.05
2018-12-30T08:27:30.300Z,92.10
2018-12-30T08:30:01.000Z,92.21
2018-12-30T08:32:31.831Z,92.27
2018-12-30T08:35:02.379Z,92.36
2018-12-30T08:37:33.642Z,92.40
2018-12-30T08:40:04.955Z,92.46
2018-12-30T08:42:38.521Z,92.51
2018-12-30T08:45:10.047Z,92.59
2018-12-30T08:47:41.022Z,92.64
2018-12-30T08:50:11.765Z,92.69
2018-12-30T08:52:42.405Z,92.74
2018-12-30T08:55:14.283Z,92.80
2018-12-30T08:57:44.664Z,92.85
2018-12-30T09:00:15.292Z,92.89
2018-12-30T09:02:45.987Z,92.94
2018-12-30T09:05:16.584Z,92.95
2018-12-30T09:07:47.579Z,92.98
2018-12-30T09:10:18.535Z,93.03
2018-12-30T09:12:49.164Z,93.06
2018-12-30T09:15:19.765Z,93.07
2018-12-30T09:17:50.570Z,93.08
2018-12-30T09:20:21.068Z,93.08
2018-12-30T09:22:51.671Z,93.07
2018-12-30T09:25:22.237Z,93.07
2018-12-30T09:27:52.681Z,93.08
2018-12-30T09:30:23.145Z,93.08
2018-12-30T09:32:53.722Z,93.09
2018-12-30T09:35:24.297Z,93.09
2018-12-30T09:37:54.972Z,93.10
2018-12-30T09:40:26.612Z,93.10
2018-12-30T09:42:57.182Z,93.11
2018-12-30T09:45:27.838Z,93.12
2018-12-30T09:47:58.280Z,93.12
2018-12-30T09:50:28.926Z,93.12
2018-12-30T09:52:59.662Z,93.11
2018-12-30T09:55:30.232Z,93.10
2018-12-30T09:58:00.776Z,93.09
2018-12-30T10:00:31.223Z,93.08
2018-12-30T10:03:02.151Z,93.07
2018-12-30T10:05:32.653Z,93.05
2018-12-30T10:08:03.147Z,93.05
2018-12-30T10:10:33.743Z,93.03
2018-12-30T10:13:04.317Z,92.99
2018-12-30T10:15:34.966Z,92.98
2018-12-30T10:18:05.580Z,92.95
2018-12-30T10:20:36.076Z,92.91
2018-12-30T10:23:06.814Z,92.91
2018-12-30T10:25:37.344Z,92.88
2018-12-30T10:28:07.963Z,92.88
2018-12-30T10:30:38.622Z,92.86
2018-12-30T10:33:09.171Z,92.82
2018-12-30T10:35:39.766Z,92.80
2018-12-30T10:38:10.377Z,92.76
2018-12-30T10:40:40.906Z,92.77
2018-12-30T10:43:11.586Z,92.72
2018-12-30T10:45:42.352Z,92.75
2018-12-30T10:48:12.862Z,92.75
2018-12-30T10:50:43.702Z,92.79
2018-12-30T10:53:14.186Z,92.78
2018-12-30T10:55:45.781Z,92.75
2018-12-30T10:58:16.745Z,92.73
2018-12-30T11:00:47.557Z,92.63
2018-12-30T11:03:18.192Z,92.59
2018-12-30T11:05:48.849Z,92.52
2018-12-30T11:08:19.479Z,92.44
2018-12-30T11:10:50.131Z,92.40
2018-12-30T11:13:20.786Z,92.32
2018-12-30T11:15:51.266Z,92.21
2018-12-30T11:18:21.733Z,92.07
2018-12-30T11:20:52.312Z,92.03
2018-12-30T11:23:22.833Z,91.96
2018-12-30T11:25:53.294Z,92.00
2018-12-30T11:28:24.226Z,91.75
2018-12-30T11:30:54.788Z,91.17
2018-12-30T11:33:25.472Z,90.52
2018-12-30T11:35:56.114Z,90.31
2018-12-30T11:38:26.722Z,90.45
2018-12-30T11:40:57.432Z,89.11
2018-12-30T11:43:28.028Z,87.03
2018-12-30T11:45:59.056Z,87.24
2018-12-30T11:48:29.623Z,86.75
2018-12-30T11:51:00.262Z,86.38
2018-12-30T11:53:30.652Z,86.59
2018-12-30T11:56:01.856Z,87.51
2018-12-30T11:58:32.336Z,88.02
2018-12-30T12:01:02.852Z,88.06
2018-12-30T12:03:33.425Z,88.48
2018-12-30T12:06:04.221Z,88.85
2018-12-30T12:08:34.781Z,89.19
2018-12-30T12:11:05.443Z,89.41
2018-12-30T12:13:36.326Z,89.71
2018-12-30T12:16:07.558Z,89.33
2018-12-30T12:18:37.921Z,88.50
2018-12-30T12:21:08.425Z,88.64
2018-12-30T12:23:38.851Z,88.46
2018-12-30T12:26:09.342Z,88.24
2018-12-30T12:28:39.986Z,88.48
2018-12-30T12:31:10.493Z,88.14
2018-12-30T12:33:41.155Z,87.88
2018-12-30T12:36:11.741Z,87.52
2018-12-30T12:38:42.394Z,87.67
2018-12-30T12:41:12.948Z,87.71
2018-12-30T12:43:43.579Z,87.51
2018-12-30T12:46:14.080Z,87.65
2018-12-30T12:48:44.514Z,88.01
2018-12-30T12:51:15.270Z,88.65
2018-12-30T12:53:45.751Z,89.07
2018-12-30T12:56:16.470Z,89.24
2018-12-30T12:58:46.886Z,89.85
2018-12-30T13:01:17.405Z,89.98
2018-12-30T13:03:48.022Z,89.68
2018-12-30T13:06:18.431Z,89.46
2018-12-30T13:08:49.344Z,89.54
2018-12-30T13:11:19.905Z,89.44
2018-12-30T13:13:50.505Z,89.34
2018-12-30T13:16:21.077Z,89.68
2018-12-30T13:18:51.705Z,90.04
2018-12-30T13:21:22.391Z,90.09
2018-12-30T13:23:53.197Z,90.08
2018-12-30T13:26:23.651Z,89.98
2018-12-30T13:28:54.261Z,90.07
2018-12-30T13:31:24.769Z,90.29
2018-12-30T13:33:55.297Z,90.37
2018-12-30T13:36:26.799Z,90.46
2018-12-30T13:38:57.250Z,89.69
2018-12-30T13:41:27.839Z,89.62
2018-12-30T13:43:58.412Z,89.81
2018-12-30T13:46:28.870Z,89.41
2018-12-30T13:48:59.337Z,89.00
2018-12-30T13:51:29.922Z,88.78
2018-12-30T13:54:00.459Z,88.55
2018-12-30T13:56:31.211Z,88.27
2018-12-30T13:59:02.042Z,88.53
2018-12-30T14:01:32.642Z,88.18
2018-12-30T14:04:03.179Z,87.94
2018-12-30T14:06:33.806Z,87.76
2018-12-30T14:09:06.421Z,87.97
2018-12-30T14:11:36.958Z,88.30
2018-12-30T14:14:07.531Z,88.84
2018-12-30T14:16:37.966Z,89.35
2018-12-30T14:19:08.527Z,89.60
2018-12-30T14:21:39.101Z,89.46
2018-12-30T14:24:09.547Z,89.44
2018-12-30T14:26:39.957Z,89.58
2018-12-30T14:29:10.532Z,89.15
2018-12-30T14:31:41.011Z,88.54
2018-12-30T14:34:11.620Z,87.46
2018-12-30T14:36:42.099Z,87.75
2018-12-30T14:39:12.691Z,87.96
2018-12-30T14:41:43.352Z,88.00
2018-12-30T14:44:13.959Z,87.98
2018-12-30T14:46:44.427Z,87.74
2018-12-30T14:49:14.981Z,87.77
2018-12-30T14:51:45.559Z,87.56
2018-12-30T14:54:16.028Z,87.08
2018-12-30T14:56:46.688Z,87.22
2018-12-30T14:59:17.182Z,86.86
2018-12-30T15:01:48.412Z,86.95
2018-12-30T15:04:18.938Z,86.96
2018-12-30T15:06:49.447Z,87.47
2018-12-30T15:09:19.978Z,87.78
2018-12-30T15:11:50.569Z,87.94
2018-12-30T15:14:21.471Z,88.16
2018-12-30T15:16:52.366Z,88.04
2018-12-30T15:19:23.049Z,88.26
2018-12-30T15:21:53.910Z,88.11
2018-12-30T15:24:25.968Z,88.33
2018-12-30T15:26:56.579Z,88.57
2018-12-30T15:29:27.128Z,88.49
2018-12-30T15:31:57.657Z,88.40
2018-12-30T15:34:28.341Z,88.44
2018-12-30T15:36:58.842Z,88.48
2018-12-30T15:39:29.363Z,88.57
2018-12-30T15:41:59.858Z,88.47
2018-12-30T15:44:30.676Z,88.39
2018-12-30T15:47:01.104Z,88.53
2018-12-30T15:49:31.743Z,88.68
2018-12-30T15:52:02.340Z,88.91
2018-12-30T15:54:32.874Z,88.79
2018-12-30T15:57:03.488Z,88.91
2018-12-30T15:59:33.931Z,88.98
2018-12-30T16:02:04.596Z,88.83
2018-12-30T16:04:35.076Z,88.90
2018-12-30T16:07:05.689Z,88.48
2018-12-30T16:09:36.817Z,88.41
2018-12-30T16:12:07.409Z,87.94
2018-12-30T16:14:38.021Z,87.75
2018-12-30T16:17:08.649Z,88.17
2018-12-30T16:19:39.210Z,88.72
2018-12-30T16:22:09.646Z,87.83
2018-12-30T16:24:40.395Z,88.04
2018-12-30T16:27:11.068Z,88.20
2018-12-30T16:29:41.722Z,87.49
2018-12-30T16:32:12.372Z,87.51
2018-12-30T16:34:42.967Z,87.69
2018-12-30T16:37:13.518Z,87.12
2018-12-30T16:40:03.238Z,87.00
2018-12-30T16:42:53.955Z,86.88
2018-12-30T16:45:24.657Z,86.65
2018-12-30T16:47:55.566Z,86.40
2018-12-30T16:50:27.268Z,86.37
2018-12-30T16:52:59.707Z,86.55
2018-12-30T16:55:34.881Z,86.70
2018-12-30T16:58:07.385Z,86.92
2018-12-30T17:00:41.532Z,86.66
2018-12-30T17:03:14.506Z,86.73
2018-12-30T17:05:45.246Z,87.07
2018-12-30T17:08:17.571Z,87.06
2018-12-30T17:10:48.625Z,87.00
2018-12-30T17:13:19.150Z,86.80
2018-12-30T17:15:49.931Z,87.07
2018-12-30T17:18:22.875Z,86.88
2018-12-30T17:20:53.991Z,86.73
2018-12-30T17:23:24.663Z,86.66
2018-12-30T17:26:00.367Z,86.62
2018-12-30T17:28:30.932Z,86.77
2018-12-30T17:31:01.614Z,86.29
2018-12-30T17:33:32.296Z,86.49
2018-12-30T17:36:02.982Z,86.19
2018-12-30T17:38:33.581Z,86.28
2018-12-30T17:41:04.330Z,86.46
2018-12-30T17:43:34.926Z,86.36
2018-12-30T17:46:06.161Z,86.45
2018-12-30T17:48:36.812Z,86.52
2018-12-30T17:51:07.413Z,86.54
2018-12-30T17:53:38.006Z,86.54
2018-12-30T17:56:10.141Z,86.84
2018-12-30T17:58:43.872Z,86.55
2018-12-30T18:01:15.726Z,86.46
2018-12-30T18:03:46.265Z,86.67
2018-12-30T18:06:16.977Z,86.46
2018-12-30T18:08:47.653Z,86.18
2018-12-30T18:11:18.280Z,85.63
2018-12-30T18:13:49.093Z,85.95
2018-12-30T18:16:19.776Z,85.82
2018-12-30T18:18:51.906Z,86.03
2018-12-30T18:21:22.750Z,85.93
2018-12-30T18:23:57.955Z,86.31
2018-12-30T18:26:37.785Z,86.52
2018-12-30T18:29:15.031Z,86.54
2018-12-30T18:31:48.322Z,86.48
2018-12-30T18:34:20.321Z,86.46
2018-12-30T18:36:51.101Z,86.47
2018-12-30T18:39:24.269Z,86.80
2018-12-30T18:41:59.417Z,86.56
2018-12-30T18:44:31.218Z,87.26
2018-12-30T18:47:11.358Z,87.24
2018-12-30T18:49:43.242Z,87.36
2018-12-30T18:52:14.985Z,87.17
2018-12-30T18:54:48.588Z,86.93
2018-12-30T18:57:41.230Z,87.28
2018-12-30T19:00:14.222Z,87.38
2018-12-30T19:02:47.692Z,87.56
2018-12-30T19:05:19.602Z,87.68
2018-12-30T19:07:53.807Z,87.93
2018-12-30T19:10:27.016Z,88.00
2018-12-30T19:12:59.010Z,88.03
2018-12-30T19:15:33.313Z,88.05
2018-12-30T19:18:05.652Z,88.50
2018-12-30T19:20:37.547Z,88.72
2018-12-30T19:23:09.212Z,88.63
2018-12-30T19:25:41.549Z,88.46
2018-12-30T19:28:14.679Z,88.53
2018-12-30T19:30:48.351Z,88.64
2018-12-30T19:33:25.028Z,88.72
2018-12-30T19:35:59.811Z,88.42
2018-12-30T19:38:48.092Z,88.14
2018-12-30T19:41:21.919Z,88.09
2018-12-30T19:43:55.601Z,88.31
2018-12-30T19:46:27.515Z,87.87
2018-12-30T19:49:01.695Z,87.32
2018-12-30T19:51:32.633Z,87.06
2018-12-30T19:54:13.340Z,87.05
2018-12-30T19:56:43.943Z,86.69
2018-12-30T19:59:15.777Z,86.55
2018-12-30T20:01:51.026Z,85.98
2018-12-30T20:04:22.170Z,86.12
2018-12-30T20:06:57.456Z,86.27
2018-12-30T20:09:28.227Z,86.05
2018-12-30T20:12:00.403Z,86.20
2018-12-30T20:14:34.857Z,86.02
2018-12-30T20:17:12.572Z,86.24
2018-12-30T20:19:43.272Z,86.10
2018-12-30T20:22:16.646Z,86.20
2018-12-30T20:25:04.105Z,86.61
2018-12-30T20:27:41.146Z,86.44
2018-12-30T20:30:11.861Z,86.41
2018-12-30T20:32:46.355Z,86.48
2018-12-30T20:35:38.367Z,85.96
2018-12-30T20:38:15.705Z,86.04
2018-12-30T20:40:48.785Z,86.02
2018-12-30T20:43:24.488Z,86.21
2018-12-30T20:45:59.292Z,86.15
2018-12-30T20:48:36.478Z,85.79
2018-12-30T20:51:12.372Z,85.70
2018-12-30T20:53:55.704Z,85.88
2018-12-30T20:56:37.655Z,86.83
2018-12-30T20:59:09.321Z,87.07
2018-12-30T21:01:41.206Z,87.47
2018-12-30T21:04:14.340Z,87.53
2018-12-30T21:06:56.529Z,87.54
2018-12-30T21:09:27.200Z,87.70
2018-12-30T21:12:01.015Z,87.36
2018-12-30T21:14:37.559Z,86.96
2018-12-30T21:17:10.595Z,86.42
2018-12-30T21:19:46.254Z,85.84
2018-12-30T21:22:18.300Z,85.64
2018-12-30T21:24:51.317Z,85.08
2018-12-30T21:27:27.594Z,85.18
2018-12-30T21:29:58.233Z,85.10
2018-12-30T21:32:29.288Z,85.04
2018-12-30T21:35:21.214Z,85.50
2018-12-30T21:37:54.790Z,84.79
2018-12-30T21:40:31.526Z,84.49
2018-12-30T21:43:03.376Z,84.61
2018-12-30T21:45:35.160Z,84.72
2018-12-30T21:48:09.482Z,84.42
2018-12-30T21:50:40.235Z,84.44
2018-12-30T21:53:11.079Z,84.21
2018-12-30T21:55:41.722Z,84.56
2018-12-30T21:58:12.670Z,84.58
2018-12-30T22:00:43.449Z,84.86
2018-12-30T22:03:14.310Z,84.75
2018-12-30T22:05:44.937Z,84.64
2018-12-30T22:08:15.626Z,84.44
2018-12-30T22:10:52.487Z,84.28
2018-12-30T22:13:23.207Z,84.27
2018-12-30T22:15:54.990Z,84.57
2018-12-30T22:18:29.127Z,85.01
2018-12-30T22:21:00.187Z,85.21
2018-12-30T22:23:30.906Z,85.40
2018-12-30T22:26:02.800Z,85.60
2018-12-30T22:28:34.594Z,85.33
2018-12-30T22:31:05.167Z,85.45
2018-12-30T22:33:36.897Z,85.29
2018-12-30T22:36:07.618Z,85.57
2018-12-30T22:38:38.297Z,85.61
2018-12-30T22:41:08.842Z,85.35
2018-12-30T22:43:39.606Z,85.34
2018-12-30T22:46:10.225Z,85.25
2018-12-30T22:48:40.946Z,85.23
2018-12-30T22:51:11.477Z,85.24
2018-12-30T22:53:42.059Z,85.20
2018-12-30T22:56:12.623Z,85.05
2018-12-30T22:58:43.096Z,84.61
2018-12-30T23:01:17.379Z,84.36
2018-12-30T23:03:47.911Z,84.20
2018-12-30T23:06:18.582Z,83.46
2018-12-30T23:08:48.930Z,83.10
2018-12-30T23:11:19.379Z,83.62
2018-12-30T23:13:49.967Z,83.52
2018-12-30T23:16:20.457Z,84.16
2018-12-30T23:18:51.371Z,84.11
2018-12-30T23:21:21.933Z,84.28
2018-12-30T23:23:52.576Z,84.26
2018-12-30T23:26:23.120Z,84.44
2018-12-30T23:28:53.651Z,84.72
2018-12-30T23:31:24.227Z,84.51
2018-12-30T23:33:55.907Z,84.29
2018-12-30T23:36:26.429Z,84.23
2018-12-30T23:38:57.117Z,83.94
2018-12-30T23:41:28.179Z,83.61
2018-12-30T23:43:58.997Z,83.80
2018-12-30T23:46:29.737Z,83.53
2018-12-30T23:49:00.943Z,83.18
2018-12-30T23:51:32.068Z,82.96
2018-12-30T23:54:02.642Z,82.38
2018-12-30T23:56:33.161Z,82.47
2018-12-30T23:59:03.829Z,82.59
